Airport Name : Halifax Intl

Other Name : Halifax Intl

ICAO : CYHZ

IATA : YHZ

FAA :

Latitude : 44.880833

Longitude : -63.50861

Country : Canada

Local Date and Time : 17 May 2021 11:00

 

TAF (Terminal Aerodrome Forecast)

TAF CYHZ 171138Z 1712/1812 15007KT P6SM SCT003 BKN140 FM171400 16012KT P6SM FEW140 FM171700 17012KT P6SM SCT050 TEMPO 1718/1722 P6SM -SHRA VCTS BKN050CB FM180000 18006KT P6SM FEW080 FM180400 VRB03KT P6SM FEW080 SCT120 BKN240 FM180900 19007KT P6SM SCT080 PROB30 1809/1812 1SM BR RMK NXT FCST BY 171500Z

 

METAR (METeorological Aerodrome Report)

CYHZ 171300Z 16009KT 130V200 15SM FEW017 SCT140 BKN260 14/09 A3029 RMK CU1AC2CI3 SLP260

CYHZ 171200Z 18010KT 15SM FEW013 SCT140 BKN260 12/09 A3029 RMK CU2AC2CI3 SLP260

CYHZ 171109Z 15007KT 15SM SCT003 BKN140 09/09 A3029 RMK SF4AC2 SLP260

CYHZ 171100Z 15009KT 4SM BR SCT004 BKN120 09/09 A3028 RMK SF4AC2 VIS LWR N-NE SLP259

CYHZ 171055Z 15009KT 4SM BR SCT004 BKN120 08/08 A3028 RMK SF4AC2 SLP258

CYHZ 171050Z 15009KT 2SM R23/2600VP6000FT/U BR BKN004 08/08 A3028 RMK SF6 SLP257

CYHZ 171044Z 14007KT 3/4SM R23/2600V4500FT/N R14/3500VP6000FT/U BR VV002 08/08 A3028 RMK FG8 SLP257

To Charter a Jet Click here.